sensor_id;sensor_type;location;lat;lon;timestamp;P1;durP1;ratioP1;P2;durP2;ratioP2
65275;SDS011;51875;49.994;14.052;2023-05-07T00:00:58;17.55;;;9.30;;
65275;SDS011;51875;49.994;14.052;2023-05-07T00:02:14;17.48;;;9.68;;
65275;SDS011;51875;49.994;14.052;2023-05-07T00:03:30;16.83;;;9.30;;
65275;SDS011;51875;49.994;14.052;2023-05-07T00:04:46;17.05;;;9.05;;
65275;SDS011;51875;49.994;14.052;2023-05-07T00:06:02;16.77;;;9.02;;
65275;SDS011;51875;49.994;14.052;2023-05-07T00:07:18;17.70;;;9.90;;
65275;SDS011;51875;49.994;14.052;2023-05-07T00:08:33;17.35;;;9.38;;
65275;SDS011;51875;49.994;14.052;2023-05-07T00:09:49;18.35;;;10.30;;
65275;SDS011;51875;49.994;14.052;2023-05-07T00:11:05;17.30;;;9.60;;
65275;SDS011;51875;49.994;14.052;2023-05-07T00:12:20;17.77;;;9.18;;
65275;SDS011;51875;49.994;14.052;2023-05-07T00:13:36;19.70;;;10.77;;
65275;SDS011;51875;49.994;14.052;2023-05-07T00:14:51;18.85;;;9.90;;
65275;SDS011;51875;49.994;14.052;2023-05-07T00:16:07;17.27;;;9.27;;
65275;SDS011;51875;49.994;14.052;2023-05-07T00:17:22;18.95;;;10.10;;
65275;SDS011;51875;49.994;14.052;2023-05-07T00:18:38;15.95;;;9.05;;
65275;SDS011;51875;49.994;14.052;2023-05-07T00:19:54;19.20;;;10.40;;
65275;SDS011;51875;49.994;14.052;2023-05-07T00:21:10;17.73;;;9.88;;
65275;SDS011;51875;49.994;14.052;2023-05-07T00:22:25;15.48;;;9.73;;
65275;SDS011;51875;49.994;14.052;2023-05-07T00:23:41;16.75;;;9.23;;
65275;SDS011;51875;49.994;14.052;2023-05-07T00:24:57;16.67;;;9.38;;
65275;SDS011;51875;49.994;14.052;2023-05-07T00:26:13;18.98;;;9.70;;
65275;SDS011;51875;49.994;14.052;2023-05-07T00:27:28;18.00;;;9.38;;
65275;SDS011;51875;49.994;14.052;2023-05-07T00:28:44;17.50;;;9.95;;
65275;SDS011;51875;49.994;14.052;2023-05-07T00:29:59;16.17;;;9.60;;
65275;SDS011;51875;49.994;14.052;2023-05-07T00:31:15;14.93;;;8.98;;
65275;SDS011;51875;49.994;14.052;2023-05-07T00:32:31;17.92;;;9.30;;
65275;SDS011;51875;49.994;14.052;2023-05-07T00:33:46;18.83;;;9.45;;
65275;SDS011;51875;49.994;14.052;2023-05-07T00:35:03;17.38;;;9.27;;
65275;SDS011;51875;49.994;14.052;2023-05-07T00:36:19;16.30;;;8.80;;
65275;SDS011;51875;49.994;14.052;2023-05-07T00:37:34;20.95;;;9.80;;
65275;SDS011;51875;49.994;14.052;2023-05-07T00:38:50;20.25;;;10.88;;
65275;SDS011;51875;49.994;14.052;2023-05-07T00:40:06;17.13;;;8.88;;
65275;SDS011;51875;49.994;14.052;2023-05-07T00:41:23;18.45;;;10.40;;
65275;SDS011;51875;49.994;14.052;2023-05-07T00:42:39;19.20;;;10.02;;
65275;SDS011;51875;49.994;14.052;2023-05-07T00:43:54;21.40;;;10.68;;
65275;SDS011;51875;49.994;14.052;2023-05-07T00:45:10;25.08;;;12.07;;
65275;SDS011;51875;49.994;14.052;2023-05-07T00:46:26;22.33;;;11.25;;
65275;SDS011;51875;49.994;14.052;2023-05-07T00:47:41;21.73;;;10.82;;
65275;SDS011;51875;49.994;14.052;2023-05-07T00:48:57;21.67;;;10.57;;
65275;SDS011;51875;49.994;14.052;2023-05-07T00:50:13;20.33;;;10.80;;
65275;SDS011;51875;49.994;14.052;2023-05-07T00:51:29;23.17;;;10.98;;
65275;SDS011;51875;49.994;14.052;2023-05-07T00:52:45;20.38;;;10.63;;
65275;SDS011;51875;49.994;14.052;2023-05-07T00:54:02;20.00;;;10.10;;
65275;SDS011;51875;49.994;14.052;2023-05-07T00:55:18;19.40;;;10.40;;
65275;SDS011;51875;49.994;14.052;2023-05-07T00:56:34;23.10;;;11.32;;
65275;SDS011;51875;49.994;14.052;2023-05-07T00:57:50;19.05;;;11.50;;
65275;SDS011;51875;49.994;14.052;2023-05-07T00:59:07;21.50;;;11.18;;
65275;SDS011;51875;49.994;14.052;2023-05-07T01:00:23;19.98;;;10.48;;
65275;SDS011;51875;49.994;14.052;2023-05-07T01:01:40;20.27;;;11.10;;
65275;SDS011;51875;49.994;14.052;2023-05-07T01:02:55;20.15;;;10.45;;
65275;SDS011;51875;49.994;14.052;2023-05-07T01:04:11;19.23;;;11.00;;
65275;SDS011;51875;49.994;14.052;2023-05-07T01:05:27;22.83;;;11.25;;
65275;SDS011;51875;49.994;14.052;2023-05-07T01:06:44;20.38;;;10.43;;
65275;SDS011;51875;49.994;14.052;2023-05-07T01:08:01;19.75;;;10.73;;
65275;SDS011;51875;49.994;14.052;2023-05-07T01:09:19;19.95;;;10.48;;
65275;SDS011;51875;49.994;14.052;2023-05-07T01:10:35;21.27;;;11.73;;
65275;SDS011;51875;49.994;14.052;2023-05-07T01:11:51;19.17;;;10.65;;
65275;SDS011;51875;49.994;14.052;2023-05-07T01:13:07;17.80;;;10.32;;
65275;SDS011;51875;49.994;14.052;2023-05-07T01:14:25;19.17;;;11.10;;
65275;SDS011;51875;49.994;14.052;2023-05-07T01:15:40;17.52;;;10.25;;
65275;SDS011;51875;49.994;14.052;2023-05-07T01:16:56;22.17;;;11.20;;
65275;SDS011;51875;49.994;14.052;2023-05-07T01:18:13;22.60;;;11.23;;
65275;SDS011;51875;49.994;14.052;2023-05-07T01:19:30;17.75;;;10.82;;
65275;SDS011;51875;49.994;14.052;2023-05-07T01:20:46;18.98;;;11.25;;
65275;SDS011;51875;49.994;14.052;2023-05-07T01:22:05;19.05;;;11.05;;
65275;SDS011;51875;49.994;14.052;2023-05-07T01:23:23;22.97;;;12.10;;
65275;SDS011;51875;49.994;14.052;2023-05-07T01:24:41;17.63;;;11.02;;
65275;SDS011;51875;49.994;14.052;2023-05-07T01:25:56;18.95;;;10.85;;
65275;SDS011;51875;49.994;14.052;2023-05-07T01:27:12;18.52;;;11.15;;
65275;SDS011;51875;49.994;14.052;2023-05-07T01:28:27;20.17;;;11.00;;
65275;SDS011;51875;49.994;14.052;2023-05-07T01:29:43;20.83;;;11.15;;
65275;SDS011;51875;49.994;14.052;2023-05-07T01:31:00;20.70;;;11.02;;
65275;SDS011;51875;49.994;14.052;2023-05-07T01:32:18;20.88;;;11.23;;
65275;SDS011;51875;49.994;14.052;2023-05-07T01:33:44;20.48;;;10.80;;
65275;SDS011;51875;49.994;14.052;2023-05-07T01:35:01;20.65;;;11.00;;
65275;SDS011;51875;49.994;14.052;2023-05-07T01:36:20;16.67;;;9.65;;
65275;SDS011;51875;49.994;14.052;2023-05-07T01:37:40;17.88;;;10.65;;
65275;SDS011;51875;49.994;14.052;2023-05-07T01:38:57;17.50;;;10.48;;
65275;SDS011;51875;49.994;14.052;2023-05-07T01:40:14;19.15;;;10.60;;
65275;SDS011;51875;49.994;14.052;2023-05-07T01:41:30;19.63;;;11.35;;
65275;SDS011;51875;49.994;14.052;2023-05-07T01:42:45;20.80;;;11.05;;
65275;SDS011;51875;49.994;14.052;2023-05-07T01:44:01;17.13;;;10.35;;
65275;SDS011;51875;49.994;14.052;2023-05-07T01:45:19;18.80;;;10.82;;
65275;SDS011;51875;49.994;14.052;2023-05-07T01:46:34;20.80;;;11.50;;
65275;SDS011;51875;49.994;14.052;2023-05-07T01:47:51;18.98;;;10.70;;
65275;SDS011;51875;49.994;14.052;2023-05-07T01:49:08;16.20;;;9.25;;
65275;SDS011;51875;49.994;14.052;2023-05-07T01:50:24;20.70;;;11.25;;
65275;SDS011;51875;49.994;14.052;2023-05-07T01:51:41;19.85;;;10.95;;
65275;SDS011;51875;49.994;14.052;2023-05-07T01:52:56;18.30;;;10.52;;
65275;SDS011;51875;49.994;14.052;2023-05-07T01:54:12;19.88;;;10.77;;
65275;SDS011;51875;49.994;14.052;2023-05-07T01:55:28;17.52;;;10.50;;
65275;SDS011;51875;49.994;14.052;2023-05-07T01:56:43;20.45;;;11.38;;
65275;SDS011;51875;49.994;14.052;2023-05-07T01:57:59;20.33;;;11.07;;
65275;SDS011;51875;49.994;14.052;2023-05-07T01:59:14;19.65;;;10.43;;
65275;SDS011;51875;49.994;14.052;2023-05-07T02:00:30;19.38;;;11.35;;
65275;SDS011;51875;49.994;14.052;2023-05-07T02:01:46;23.85;;;11.02;;
65275;SDS011;51875;49.994;14.052;2023-05-07T02:03:02;18.98;;;10.70;;
65275;SDS011;51875;49.994;14.052;2023-05-07T02:04:18;17.33;;;10.10;;
65275;SDS011;51875;49.994;14.052;2023-05-07T02:05:34;17.35;;;10.13;;
65275;SDS011;51875;49.994;14.052;2023-05-07T02:06:49;22.17;;;11.38;;
65275;SDS011;51875;49.994;14.052;2023-05-07T02:08:05;21.23;;;10.98;;
65275;SDS011;51875;49.994;14.052;2023-05-07T02:09:21;17.60;;;9.73;;
65275;SDS011;51875;49.994;14.052;2023-05-07T02:10:37;17.83;;;10.15;;
65275;SDS011;51875;49.994;14.052;2023-05-07T02:11:52;18.17;;;10.55;;
65275;SDS011;51875;49.994;14.052;2023-05-07T02:13:08;20.15;;;10.02;;
65275;SDS011;51875;49.994;14.052;2023-05-07T02:14:24;18.02;;;11.13;;
65275;SDS011;51875;49.994;14.052;2023-05-07T02:15:41;17.70;;;9.75;;
65275;SDS011;51875;49.994;14.052;2023-05-07T02:16:56;17.60;;;9.70;;
65275;SDS011;51875;49.994;14.052;2023-05-07T02:18:12;19.67;;;10.35;;
65275;SDS011;51875;49.994;14.052;2023-05-07T02:19:27;17.95;;;10.25;;
65275;SDS011;51875;49.994;14.052;2023-05-07T02:20:43;16.42;;;10.38;;
65275;SDS011;51875;49.994;14.052;2023-05-07T02:21:58;20.95;;;10.18;;
65275;SDS011;51875;49.994;14.052;2023-05-07T02:23:14;16.55;;;9.75;;
65275;SDS011;51875;49.994;14.052;2023-05-07T02:24:29;18.70;;;10.35;;
65275;SDS011;51875;49.994;14.052;2023-05-07T02:25:45;19.52;;;10.93;;
65275;SDS011;51875;49.994;14.052;2023-05-07T02:27:01;18.63;;;11.00;;
65275;SDS011;51875;49.994;14.052;2023-05-07T02:28:17;17.20;;;10.05;;
65275;SDS011;51875;49.994;14.052;2023-05-07T02:29:33;17.55;;;9.98;;
65275;SDS011;51875;49.994;14.052;2023-05-07T02:30:48;18.50;;;10.15;;
65275;SDS011;51875;49.994;14.052;2023-05-07T02:32:04;19.48;;;10.30;;
65275;SDS011;51875;49.994;14.052;2023-05-07T02:33:20;20.25;;;11.02;;
65275;SDS011;51875;49.994;14.052;2023-05-07T02:34:35;19.80;;;10.60;;
65275;SDS011;51875;49.994;14.052;2023-05-07T02:35:51;18.25;;;10.32;;
65275;SDS011;51875;49.994;14.052;2023-05-07T02:37:07;18.48;;;10.60;;
65275;SDS011;51875;49.994;14.052;2023-05-07T02:38:22;17.52;;;10.55;;
65275;SDS011;51875;49.994;14.052;2023-05-07T02:39:38;17.40;;;9.55;;
65275;SDS011;51875;49.994;14.052;2023-05-07T02:40:54;19.13;;;10.98;;
65275;SDS011;51875;49.994;14.052;2023-05-07T02:42:09;18.73;;;10.98;;
65275;SDS011;51875;49.994;14.052;2023-05-07T02:43:25;17.65;;;11.00;;
65275;SDS011;51875;49.994;14.052;2023-05-07T02:44:41;17.60;;;10.27;;
65275;SDS011;51875;49.994;14.052;2023-05-07T02:47:18;19.90;;;11.07;;
65275;SDS011;51875;49.994;14.052;2023-05-07T02:48:34;19.70;;;10.60;;
65275;SDS011;51875;49.994;14.052;2023-05-07T02:49:50;17.25;;;10.90;;
65275;SDS011;51875;49.994;14.052;2023-05-07T02:51:05;17.13;;;10.23;;
65275;SDS011;51875;49.994;14.052;2023-05-07T02:52:21;18.42;;;10.68;;
65275;SDS011;51875;49.994;14.052;2023-05-07T02:53:37;21.85;;;11.73;;
65275;SDS011;51875;49.994;14.052;2023-05-07T02:54:52;21.60;;;11.02;;
65275;SDS011;51875;49.994;14.052;2023-05-07T02:56:08;17.65;;;10.95;;
65275;SDS011;51875;49.994;14.052;2023-05-07T02:57:24;21.98;;;11.85;;
65275;SDS011;51875;49.994;14.052;2023-05-07T02:58:39;21.00;;;11.07;;
65275;SDS011;51875;49.994;14.052;2023-05-07T02:59:57;18.50;;;11.60;;
65275;SDS011;51875;49.994;14.052;2023-05-07T03:01:13;19.48;;;10.95;;
65275;SDS011;51875;49.994;14.052;2023-05-07T03:02:29;18.70;;;11.02;;
65275;SDS011;51875;49.994;14.052;2023-05-07T03:03:44;19.25;;;11.80;;
65275;SDS011;51875;49.994;14.052;2023-05-07T03:05:00;21.00;;;11.23;;
65275;SDS011;51875;49.994;14.052;2023-05-07T03:06:15;17.38;;;10.57;;
65275;SDS011;51875;49.994;14.052;2023-05-07T03:07:31;22.52;;;11.48;;
65275;SDS011;51875;49.994;14.052;2023-05-07T03:08:46;19.80;;;10.68;;
65275;SDS011;51875;49.994;14.052;2023-05-07T03:10:02;18.38;;;10.65;;
65275;SDS011;51875;49.994;14.052;2023-05-07T03:11:19;19.38;;;11.15;;
65275;SDS011;51875;49.994;14.052;2023-05-07T03:12:34;19.13;;;10.88;;
65275;SDS011;51875;49.994;14.052;2023-05-07T03:13:50;21.40;;;11.85;;
65275;SDS011;51875;49.994;14.052;2023-05-07T03:15:06;18.55;;;11.02;;
65275;SDS011;51875;49.994;14.052;2023-05-07T03:16:23;19.95;;;11.07;;
65275;SDS011;51875;49.994;14.052;2023-05-07T03:17:38;18.73;;;11.00;;
65275;SDS011;51875;49.994;14.052;2023-05-07T03:18:54;22.58;;;11.93;;
65275;SDS011;51875;49.994;14.052;2023-05-07T03:20:10;21.88;;;10.88;;
65275;SDS011;51875;49.994;14.052;2023-05-07T03:21:25;19.88;;;11.48;;
65275;SDS011;51875;49.994;14.052;2023-05-07T03:22:41;21.27;;;11.73;;
65275;SDS011;51875;49.994;14.052;2023-05-07T03:23:57;20.05;;;11.80;;
65275;SDS011;51875;49.994;14.052;2023-05-07T03:25:12;16.27;;;10.43;;
65275;SDS011;51875;49.994;14.052;2023-05-07T03:26:29;20.17;;;10.85;;
65275;SDS011;51875;49.994;14.052;2023-05-07T03:27:44;19.48;;;11.18;;
65275;SDS011;51875;49.994;14.052;2023-05-07T03:29:00;17.48;;;10.82;;
65275;SDS011;51875;49.994;14.052;2023-05-07T03:30:16;16.92;;;10.23;;
65275;SDS011;51875;49.994;14.052;2023-05-07T03:31:31;17.30;;;10.77;;
65275;SDS011;51875;49.994;14.052;2023-05-07T03:32:47;18.50;;;10.85;;
65275;SDS011;51875;49.994;14.052;2023-05-07T03:34:03;17.55;;;9.98;;
65275;SDS011;51875;49.994;14.052;2023-05-07T03:35:19;20.60;;;11.02;;
65275;SDS011;51875;49.994;14.052;2023-05-07T03:36:35;20.75;;;10.98;;
65275;SDS011;51875;49.994;14.052;2023-05-07T03:37:51;17.80;;;10.05;;
65275;SDS011;51875;49.994;14.052;2023-05-07T03:39:06;18.65;;;9.90;;
65275;SDS011;51875;49.994;14.052;2023-05-07T03:40:22;19.05;;;9.98;;
65275;SDS011;51875;49.994;14.052;2023-05-07T03:41:37;16.85;;;9.73;;
65275;SDS011;51875;49.994;14.052;2023-05-07T03:42:53;17.55;;;10.10;;
65275;SDS011;51875;49.994;14.052;2023-05-07T03:44:08;18.92;;;10.63;;
65275;SDS011;51875;49.994;14.052;2023-05-07T03:45:24;17.63;;;10.55;;
65275;SDS011;51875;49.994;14.052;2023-05-07T03:46:39;19.95;;;11.05;;
65275;SDS011;51875;49.994;14.052;2023-05-07T03:47:55;21.38;;;10.15;;
65275;SDS011;51875;49.994;14.052;2023-05-07T03:49:10;18.27;;;10.63;;
65275;SDS011;51875;49.994;14.052;2023-05-07T03:50:26;17.83;;;11.57;;
65275;SDS011;51875;49.994;14.052;2023-05-07T03:51:42;16.70;;;10.32;;
65275;SDS011;51875;49.994;14.052;2023-05-07T03:52:57;19.48;;;10.68;;
65275;SDS011;51875;49.994;14.052;2023-05-07T03:54:13;18.85;;;11.27;;
65275;SDS011;51875;49.994;14.052;2023-05-07T03:55:29;21.40;;;10.80;;
65275;SDS011;51875;49.994;14.052;2023-05-07T03:56:44;17.10;;;10.25;;
65275;SDS011;51875;49.994;14.052;2023-05-07T03:58:00;17.05;;;10.15;;
65275;SDS011;51875;49.994;14.052;2023-05-07T03:59:15;17.15;;;9.98;;
65275;SDS011;51875;49.994;14.052;2023-05-07T04:00:31;16.45;;;9.60;;
65275;SDS011;51875;49.994;14.052;2023-05-07T04:01:49;17.60;;;9.88;;
65275;SDS011;51875;49.994;14.052;2023-05-07T04:03:05;17.13;;;9.75;;
65275;SDS011;51875;49.994;14.052;2023-05-07T04:04:21;16.45;;;10.32;;
65275;SDS011;51875;49.994;14.052;2023-05-07T04:05:37;16.23;;;9.52;;
65275;SDS011;51875;49.994;14.052;2023-05-07T04:06:52;20.23;;;10.23;;
65275;SDS011;51875;49.994;14.052;2023-05-07T04:08:08;17.05;;;10.20;;
65275;SDS011;51875;49.994;14.052;2023-05-07T04:09:23;16.85;;;9.95;;
65275;SDS011;51875;49.994;14.052;2023-05-07T04:10:39;17.63;;;10.40;;
65275;SDS011;51875;49.994;14.052;2023-05-07T04:11:54;17.80;;;10.30;;
65275;SDS011;51875;49.994;14.052;2023-05-07T04:13:10;17.30;;;10.38;;
65275;SDS011;51875;49.994;14.052;2023-05-07T04:14:26;15.52;;;10.23;;
65275;SDS011;51875;49.994;14.052;2023-05-07T04:15:41;17.58;;;9.90;;
65275;SDS011;51875;49.994;14.052;2023-05-07T04:16:58;16.60;;;9.93;;
65275;SDS011;51875;49.994;14.052;2023-05-07T04:18:14;18.35;;;10.52;;
65275;SDS011;51875;49.994;14.052;2023-05-07T04:19:30;18.05;;;10.13;;
65275;SDS011;51875;49.994;14.052;2023-05-07T04:20:49;17.10;;;10.50;;
65275;SDS011;51875;49.994;14.052;2023-05-07T04:22:05;17.83;;;9.93;;
65275;SDS011;51875;49.994;14.052;2023-05-07T04:23:20;17.33;;;9.68;;
65275;SDS011;51875;49.994;14.052;2023-05-07T04:24:36;20.83;;;11.60;;
65275;SDS011;51875;49.994;14.052;2023-05-07T04:25:51;18.00;;;10.55;;
65275;SDS011;51875;49.994;14.052;2023-05-07T04:27:07;17.30;;;10.43;;
65275;SDS011;51875;49.994;14.052;2023-05-07T04:28:23;18.77;;;10.48;;
65275;SDS011;51875;49.994;14.052;2023-05-07T04:29:39;17.63;;;10.40;;
65275;SDS011;51875;49.994;14.052;2023-05-07T04:30:57;17.15;;;10.23;;
65275;SDS011;51875;49.994;14.052;2023-05-07T04:32:13;16.73;;;10.07;;
65275;SDS011;51875;49.994;14.052;2023-05-07T04:33:28;16.63;;;10.50;;
65275;SDS011;51875;49.994;14.052;2023-05-07T04:34:44;22.35;;;9.52;;
65275;SDS011;51875;49.994;14.052;2023-05-07T04:36:03;17.27;;;9.50;;
65275;SDS011;51875;49.994;14.052;2023-05-07T04:37:19;19.08;;;9.70;;
65275;SDS011;51875;49.994;14.052;2023-05-07T04:38:34;17.35;;;10.40;;
65275;SDS011;51875;49.994;14.052;2023-05-07T04:39:51;17.10;;;9.77;;
65275;SDS011;51875;49.994;14.052;2023-05-07T04:41:08;18.65;;;10.75;;
65275;SDS011;51875;49.994;14.052;2023-05-07T04:42:24;18.33;;;11.02;;
65275;SDS011;51875;49.994;14.052;2023-05-07T04:43:40;18.25;;;10.18;;
65275;SDS011;51875;49.994;14.052;2023-05-07T04:44:56;15.65;;;9.65;;
65275;SDS011;51875;49.994;14.052;2023-05-07T04:46:12;17.02;;;10.48;;
65275;SDS011;51875;49.994;14.052;2023-05-07T04:47:28;16.80;;;9.95;;
65275;SDS011;51875;49.994;14.052;2023-05-07T04:48:43;18.33;;;10.27;;
65275;SDS011;51875;49.994;14.052;2023-05-07T04:49:59;15.07;;;9.52;;
65275;SDS011;51875;49.994;14.052;2023-05-07T04:51:14;19.58;;;10.15;;
65275;SDS011;51875;49.994;14.052;2023-05-07T04:52:30;17.50;;;9.70;;
65275;SDS011;51875;49.994;14.052;2023-05-07T04:53:46;18.23;;;10.23;;
65275;SDS011;51875;49.994;14.052;2023-05-07T04:55:03;15.93;;;9.63;;
65275;SDS011;51875;49.994;14.052;2023-05-07T04:56:19;17.40;;;9.65;;
65275;SDS011;51875;49.994;14.052;2023-05-07T04:57:35;17.00;;;9.77;;
65275;SDS011;51875;49.994;14.052;2023-05-07T04:58:53;17.58;;;10.43;;
65275;SDS011;51875;49.994;14.052;2023-05-07T05:00:08;15.35;;;9.52;;
65275;SDS011;51875;49.994;14.052;2023-05-07T05:01:24;17.02;;;9.25;;
65275;SDS011;51875;49.994;14.052;2023-05-07T05:02:40;17.35;;;10.07;;
65275;SDS011;51875;49.994;14.052;2023-05-07T05:03:56;15.80;;;9.40;;
65275;SDS011;51875;49.994;14.052;2023-05-07T05:05:11;16.65;;;9.82;;
65275;SDS011;51875;49.994;14.052;2023-05-07T05:06:28;16.45;;;9.45;;
65275;SDS011;51875;49.994;14.052;2023-05-07T05:07:44;16.00;;;10.18;;
65275;SDS011;51875;49.994;14.052;2023-05-07T05:08:59;15.73;;;9.65;;
65275;SDS011;51875;49.994;14.052;2023-05-07T05:10:15;17.23;;;9.68;;
65275;SDS011;51875;49.994;14.052;2023-05-07T05:11:31;16.20;;;9.63;;
65275;SDS011;51875;49.994;14.052;2023-05-07T05:12:47;15.70;;;9.48;;
65275;SDS011;51875;49.994;14.052;2023-05-07T05:14:02;16.08;;;9.38;;
65275;SDS011;51875;49.994;14.052;2023-05-07T05:15:18;19.88;;;9.98;;
65275;SDS011;51875;49.994;14.052;2023-05-07T05:16:33;16.35;;;9.35;;
65275;SDS011;51875;49.994;14.052;2023-05-07T05:17:49;16.45;;;9.63;;
65275;SDS011;51875;49.994;14.052;2023-05-07T05:19:05;14.60;;;9.00;;
65275;SDS011;51875;49.994;14.052;2023-05-07T05:20:20;19.50;;;10.00;;
65275;SDS011;51875;49.994;14.052;2023-05-07T05:21:36;17.92;;;10.63;;
65275;SDS011;51875;49.994;14.052;2023-05-07T05:22:51;15.85;;;9.75;;
65275;SDS011;51875;49.994;14.052;2023-05-07T05:24:07;16.58;;;9.90;;
65275;SDS011;51875;49.994;14.052;2023-05-07T05:25:23;18.13;;;8.98;;
65275;SDS011;51875;49.994;14.052;2023-05-07T05:26:39;16.05;;;10.07;;
65275;SDS011;51875;49.994;14.052;2023-05-07T05:27:54;14.63;;;8.88;;
65275;SDS011;51875;49.994;14.052;2023-05-07T05:29:10;15.32;;;8.57;;
65275;SDS011;51875;49.994;14.052;2023-05-07T05:30:26;16.38;;;9.00;;
65275;SDS011;51875;49.994;14.052;2023-05-07T05:31:41;14.50;;;8.32;;
65275;SDS011;51875;49.994;14.052;2023-05-07T05:32:57;17.10;;;9.07;;
65275;SDS011;51875;49.994;14.052;2023-05-07T05:34:12;14.70;;;7.95;;
65275;SDS011;51875;49.994;14.052;2023-05-07T05:35:29;14.70;;;8.10;;
65275;SDS011;51875;49.994;14.052;2023-05-07T05:36:45;13.73;;;8.05;;
65275;SDS011;51875;49.994;14.052;2023-05-07T05:38:01;16.88;;;8.55;;
65275;SDS011;51875;49.994;14.052;2023-05-07T05:39:16;17.83;;;10.27;;
65275;SDS011;51875;49.994;14.052;2023-05-07T05:40:32;16.88;;;8.73;;
65275;SDS011;51875;49.994;14.052;2023-05-07T05:41:48;18.27;;;9.38;;
65275;SDS011;51875;49.994;14.052;2023-05-07T05:43:03;17.40;;;8.82;;
65275;SDS011;51875;49.994;14.052;2023-05-07T05:44:19;17.60;;;9.27;;
65275;SDS011;51875;49.994;14.052;2023-05-07T05:45:35;15.18;;;9.02;;
65275;SDS011;51875;49.994;14.052;2023-05-07T05:46:50;13.00;;;7.88;;
65275;SDS011;51875;49.994;14.052;2023-05-07T05:48:06;16.00;;;8.15;;
65275;SDS011;51875;49.994;14.052;2023-05-07T05:49:23;14.50;;;7.75;;
65275;SDS011;51875;49.994;14.052;2023-05-07T05:50:38;15.13;;;7.55;;
65275;SDS011;51875;49.994;14.052;2023-05-07T05:51:54;14.95;;;8.18;;
65275;SDS011;51875;49.994;14.052;2023-05-07T05:53:11;13.38;;;8.45;;
65275;SDS011;51875;49.994;14.052;2023-05-07T05:54:26;13.57;;;8.55;;
65275;SDS011;51875;49.994;14.052;2023-05-07T05:55:42;17.55;;;8.88;;
65275;SDS011;51875;49.994;14.052;2023-05-07T05:56:58;16.50;;;9.00;;
65275;SDS011;51875;49.994;14.052;2023-05-07T05:58:14;14.00;;;9.00;;
65275;SDS011;51875;49.994;14.052;2023-05-07T05:59:30;15.38;;;8.98;;
65275;SDS011;51875;49.994;14.052;2023-05-07T06:00:46;16.23;;;9.35;;
65275;SDS011;51875;49.994;14.052;2023-05-07T06:02:03;16.15;;;8.95;;
65275;SDS011;51875;49.994;14.052;2023-05-07T06:03:19;13.52;;;8.07;;
65275;SDS011;51875;49.994;14.052;2023-05-07T06:04:34;15.75;;;8.50;;
65275;SDS011;51875;49.994;14.052;2023-05-07T06:05:50;13.82;;;7.63;;
65275;SDS011;51875;49.994;14.052;2023-05-07T06:07:05;13.52;;;7.95;;
65275;SDS011;51875;49.994;14.052;2023-05-07T06:08:21;14.73;;;8.20;;
65275;SDS011;51875;49.994;14.052;2023-05-07T06:09:36;13.05;;;7.68;;
65275;SDS011;51875;49.994;14.052;2023-05-07T06:10:52;14.75;;;7.85;;
65275;SDS011;51875;49.994;14.052;2023-05-07T06:12:08;14.40;;;8.25;;
65275;SDS011;51875;49.994;14.052;2023-05-07T06:13:23;12.20;;;7.70;;
65275;SDS011;51875;49.994;14.052;2023-05-07T06:14:39;14.15;;;7.93;;
65275;SDS011;51875;49.994;14.052;2023-05-07T06:15:56;13.20;;;8.55;;
65275;SDS011;51875;49.994;14.052;2023-05-07T06:17:17;13.20;;;8.13;;
65275;SDS011;51875;49.994;14.052;2023-05-07T06:18:33;15.98;;;8.90;;
65275;SDS011;51875;49.994;14.052;2023-05-07T06:19:51;16.00;;;7.45;;
65275;SDS011;51875;49.994;14.052;2023-05-07T06:21:07;16.50;;;8.30;;
65275;SDS011;51875;49.994;14.052;2023-05-07T06:22:23;17.80;;;8.23;;
65275;SDS011;51875;49.994;14.052;2023-05-07T06:23:38;13.35;;;7.78;;
65275;SDS011;51875;49.994;14.052;2023-05-07T06:24:55;15.23;;;9.13;;
65275;SDS011;51875;49.994;14.052;2023-05-07T06:26:11;14.52;;;7.82;;
65275;SDS011;51875;49.994;14.052;2023-05-07T06:27:27;11.88;;;7.65;;
65275;SDS011;51875;49.994;14.052;2023-05-07T06:28:43;15.48;;;7.68;;
65275;SDS011;51875;49.994;14.052;2023-05-07T06:29:58;13.18;;;7.90;;
65275;SDS011;51875;49.994;14.052;2023-05-07T06:31:20;12.82;;;8.07;;
65275;SDS011;51875;49.994;14.052;2023-05-07T06:32:36;11.52;;;7.68;;
65275;SDS011;51875;49.994;14.052;2023-05-07T06:33:52;13.93;;;8.30;;
65275;SDS011;51875;49.994;14.052;2023-05-07T06:35:07;13.93;;;8.23;;
65275;SDS011;51875;49.994;14.052;2023-05-07T06:36:23;13.27;;;8.05;;
65275;SDS011;51875;49.994;14.052;2023-05-07T06:37:41;12.60;;;7.70;;
65275;SDS011;51875;49.994;14.052;2023-05-07T06:39:00;14.10;;;8.10;;
65275;SDS011;51875;49.994;14.052;2023-05-07T06:40:15;12.35;;;7.55;;
65275;SDS011;51875;49.994;14.052;2023-05-07T06:41:32;12.75;;;7.40;;
65275;SDS011;51875;49.994;14.052;2023-05-07T06:42:47;14.82;;;7.40;;
65275;SDS011;51875;49.994;14.052;2023-05-07T06:44:03;12.68;;;7.40;;
65275;SDS011;51875;49.994;14.052;2023-05-07T06:45:19;12.30;;;7.80;;
65275;SDS011;51875;49.994;14.052;2023-05-07T06:46:35;12.63;;;7.47;;
65275;SDS011;51875;49.994;14.052;2023-05-07T06:47:50;12.43;;;7.38;;
65275;SDS011;51875;49.994;14.052;2023-05-07T06:49:06;10.43;;;6.80;;
65275;SDS011;51875;49.994;14.052;2023-05-07T06:50:22;43.60;;;7.93;;
65275;SDS011;51875;49.994;14.052;2023-05-07T06:51:37;12.48;;;7.20;;
65275;SDS011;51875;49.994;14.052;2023-05-07T06:52:53;11.85;;;6.88;;
65275;SDS011;51875;49.994;14.052;2023-05-07T06:54:09;10.85;;;6.68;;
65275;SDS011;51875;49.994;14.052;2023-05-07T06:55:24;11.15;;;6.47;;
65275;SDS011;51875;49.994;14.052;2023-05-07T06:56:40;10.40;;;6.45;;
65275;SDS011;51875;49.994;14.052;2023-05-07T06:57:56;10.10;;;5.95;;
65275;SDS011;51875;49.994;14.052;2023-05-07T06:59:13;9.38;;;6.28;;
65275;SDS011;51875;49.994;14.052;2023-05-07T07:00:29;12.25;;;7.00;;
65275;SDS011;51875;49.994;14.052;2023-05-07T07:01:44;10.07;;;6.28;;
65275;SDS011;51875;49.994;14.052;2023-05-07T07:03:00;9.13;;;5.82;;
65275;SDS011;51875;49.994;14.052;2023-05-07T07:04:15;10.45;;;6.47;;
65275;SDS011;51875;49.994;14.052;2023-05-07T07:05:31;12.27;;;6.55;;
65275;SDS011;51875;49.994;14.052;2023-05-07T07:06:46;11.60;;;6.25;;
65275;SDS011;51875;49.994;14.052;2023-05-07T07:08:02;9.38;;;6.22;;
65275;SDS011;51875;49.994;14.052;2023-05-07T07:09:18;8.18;;;5.75;;
65275;SDS011;51875;49.994;14.052;2023-05-07T07:10:33;8.90;;;5.75;;
65275;SDS011;51875;49.994;14.052;2023-05-07T07:11:49;10.65;;;5.93;;
65275;SDS011;51875;49.994;14.052;2023-05-07T07:13:05;9.98;;;6.30;;
65275;SDS011;51875;49.994;14.052;2023-05-07T07:14:21;9.07;;;5.88;;
65275;SDS011;51875;49.994;14.052;2023-05-07T07:15:37;9.07;;;5.80;;
65275;SDS011;51875;49.994;14.052;2023-05-07T07:16:52;9.15;;;6.20;;
65275;SDS011;51875;49.994;14.052;2023-05-07T07:18:08;9.13;;;6.50;;
65275;SDS011;51875;49.994;14.052;2023-05-07T07:19:24;9.18;;;6.10;;
65275;SDS011;51875;49.994;14.052;2023-05-07T07:20:40;9.40;;;5.70;;
65275;SDS011;51875;49.994;14.052;2023-05-07T07:21:56;10.13;;;6.45;;
65275;SDS011;51875;49.994;14.052;2023-05-07T07:23:12;12.77;;;6.35;;